sensor_id;sensor_type;location;lat;lon;timestamp;pressure;altitude;pressure_sealevel;temperature;humidity
71966;BME280;59836;52.132;5.442;2023-07-13T00:04:38;101367.03;;;17.46;76.79
71966;BME280;59836;52.132;5.442;2023-07-13T00:13:08;101360.03;;;17.40;76.90
71966;BME280;59836;52.132;5.442;2023-07-13T02:17:49;101401.06;;;16.21;80.33
71966;BME280;59836;52.132;5.442;2023-07-13T03:00:38;101400.22;;;15.77;82.31
71966;BME280;59836;52.132;5.442;2023-07-13T04:22:26;101461.34;;;15.62;85.96
71966;BME280;59836;52.132;5.442;2023-07-13T04:27:49;101463.22;;;15.67;86.09
71966;BME280;59836;52.132;5.442;2023-07-13T04:30:16;101468.41;;;15.69;85.98
71966;BME280;59836;52.132;5.442;2023-07-13T04:32:46;101478.75;;;15.72;86.13
71966;BME280;59836;52.132;5.442;2023-07-13T04:35:35;101476.84;;;15.72;86.26
71966;BME280;59836;52.132;5.442;2023-07-13T04:38:04;101476.53;;;15.74;86.21
71966;BME280;59836;52.132;5.442;2023-07-13T04:40:42;101476.50;;;15.79;86.56
71966;BME280;59836;52.132;5.442;2023-07-13T04:43:29;101463.34;;;15.81;86.61
71966;BME280;59836;52.132;5.442;2023-07-13T04:48:43;101470.44;;;15.87;86.19
71966;BME280;59836;52.132;5.442;2023-07-13T04:51:10;101475.84;;;15.92;86.28
71966;BME280;59836;52.132;5.442;2023-07-13T04:53:37;101473.09;;;15.92;86.47
71966;BME280;59836;52.132;5.442;2023-07-13T04:56:14;101468.16;;;15.94;86.54
71966;BME280;59836;52.132;5.442;2023-07-13T04:58:53;101469.22;;;15.99;86.56
71966;BME280;59836;52.132;5.442;2023-07-13T05:01:21;101466.16;;;16.00;86.27
71966;BME280;59836;52.132;5.442;2023-07-13T05:03:49;101463.97;;;16.02;86.67
71966;BME280;59836;52.132;5.442;2023-07-13T05:06:30;101467.47;;;16.08;86.60
71966;BME280;59836;52.132;5.442;2023-07-13T05:08:58;101472.63;;;16.09;86.67
71966;BME280;59836;52.132;5.442;2023-07-13T05:17:18;101481.03;;;16.18;87.17
71966;BME280;59836;52.132;5.442;2023-07-13T05:26:48;101491.47;;;16.35;86.86
71966;BME280;59836;52.132;5.442;2023-07-13T05:33:13;101495.47;;;16.43;87.24
71966;BME280;59836;52.132;5.442;2023-07-13T05:35:42;101496.53;;;16.47;87.27
71966;BME280;59836;52.132;5.442;2023-07-13T05:38:09;101496.78;;;16.51;87.07
71966;BME280;59836;52.132;5.442;2023-07-13T05:40:43;101502.47;;;16.55;87.19
71966;BME280;59836;52.132;5.442;2023-07-13T05:43:37;101498.63;;;16.56;87.26
71966;BME280;59836;52.132;5.442;2023-07-13T05:49:39;101510.59;;;16.60;87.21
71966;BME280;59836;52.132;5.442;2023-07-13T06:01:32;101514.84;;;16.71;87.73
71966;BME280;59836;52.132;5.442;2023-07-13T06:03:59;101526.31;;;16.73;87.73
71966;BME280;59836;52.132;5.442;2023-07-13T06:12:28;101536.09;;;16.79;87.98
71966;BME280;59836;52.132;5.442;2023-07-13T06:14:54;101541.28;;;16.81;87.87
71966;BME280;59836;52.132;5.442;2023-07-13T06:17:27;101540.13;;;16.87;87.75
71966;BME280;59836;52.132;5.442;2023-07-13T06:20:34;101539.22;;;16.92;88.02
71966;BME280;59836;52.132;5.442;2023-07-13T06:23:02;101534.78;;;16.96;88.00
71966;BME280;59836;52.132;5.442;2023-07-13T06:32:37;101557.38;;;17.07;87.76
71966;BME280;59836;52.132;5.442;2023-07-13T06:35:07;101554.38;;;17.08;87.56
71966;BME280;59836;52.132;5.442;2023-07-13T06:37:38;101555.69;;;17.11;87.82
71966;BME280;59836;52.132;5.442;2023-07-13T06:40:10;101560.28;;;17.16;87.57
71966;BME280;59836;52.132;5.442;2023-07-13T06:43:02;101556.38;;;17.22;87.69
71966;BME280;59836;52.132;5.442;2023-07-13T07:03:03;101564.28;;;17.43;87.12
71966;BME280;59836;52.132;5.442;2023-07-13T07:10:46;101570.22;;;17.64;87.41
71966;BME280;59836;52.132;5.442;2023-07-13T07:14:00;101580.09;;;17.65;86.93
71966;BME280;59836;52.132;5.442;2023-07-13T07:16:29;101581.41;;;17.67;86.65
71966;BME280;59836;52.132;5.442;2023-07-13T07:18:57;101585.19;;;17.71;86.93
71966;BME280;59836;52.132;5.442;2023-07-13T07:21:30;101576.34;;;17.75;86.95
71966;BME280;59836;52.132;5.442;2023-07-13T07:23:57;101584.50;;;17.80;87.08
71966;BME280;59836;52.132;5.442;2023-07-13T07:26:28;101592.44;;;17.81;86.52
71966;BME280;59836;52.132;5.442;2023-07-13T07:29:15;101586.13;;;17.81;86.55
71966;BME280;59836;52.132;5.442;2023-07-13T07:32:08;101592.13;;;17.83;86.82
71966;BME280;59836;52.132;5.442;2023-07-13T07:35:00;101589.38;;;17.83;87.50
71966;BME280;59836;52.132;5.442;2023-07-13T07:37:43;101591.31;;;17.82;87.64
71966;BME280;59836;52.132;5.442;2023-07-13T07:40:21;101594.66;;;17.79;88.26
71966;BME280;59836;52.132;5.442;2023-07-13T07:42:50;101589.47;;;17.78;88.96
71966;BME280;59836;52.132;5.442;2023-07-13T07:45:38;101591.41;;;17.77;88.94
71966;BME280;59836;52.132;5.442;2023-07-13T07:48:12;101586.72;;;17.78;90.13
71966;BME280;59836;52.132;5.442;2023-07-13T07:50:38;101574.94;;;17.77;90.54
71966;BME280;59836;52.132;5.442;2023-07-13T07:53:07;101577.38;;;17.79;89.83
71966;BME280;59836;52.132;5.442;2023-07-13T07:55:37;101569.16;;;17.79;90.63
71966;BME280;59836;52.132;5.442;2023-07-13T07:58:10;101573.00;;;17.78;90.23
71966;BME280;59836;52.132;5.442;2023-07-13T08:01:08;101570.78;;;17.80;90.13
71966;BME280;59836;52.132;5.442;2023-07-13T08:03:38;101557.06;;;17.80;90.46
71966;BME280;59836;52.132;5.442;2023-07-13T08:06:15;101568.53;;;17.82;90.23
71966;BME280;59836;52.132;5.442;2023-07-13T08:09:02;101569.28;;;17.88;90.39
71966;BME280;59836;52.132;5.442;2023-07-13T08:11:40;101577.63;;;17.96;90.88
71966;BME280;59836;52.132;5.442;2023-07-13T08:14:10;101582.13;;;18.06;91.21
71966;BME280;59836;52.132;5.442;2023-07-13T08:16:36;101589.66;;;18.14;91.11
71966;BME280;59836;52.132;5.442;2023-07-13T08:19:05;101573.09;;;18.20;89.92
71966;BME280;59836;52.132;5.442;2023-07-13T08:21:32;101582.38;;;18.24;90.12
71966;BME280;59836;52.132;5.442;2023-07-13T08:23:59;101578.81;;;18.23;89.55
71966;BME280;59836;52.132;5.442;2023-07-13T08:26:34;101571.19;;;18.20;88.92
71966;BME280;59836;52.132;5.442;2023-07-13T08:29:01;101571.78;;;18.17;89.27
71966;BME280;59836;52.132;5.442;2023-07-13T08:31:28;101580.91;;;18.12;87.74
71966;BME280;59836;52.132;5.442;2023-07-13T08:33:55;101581.53;;;18.09;88.67
71966;BME280;59836;52.132;5.442;2023-07-13T08:36:22;101571.38;;;18.10;88.32
71966;BME280;59836;52.132;5.442;2023-07-13T08:38:48;101566.06;;;18.13;88.40
71966;BME280;59836;52.132;5.442;2023-07-13T08:41:17;101571.19;;;18.20;88.13
71966;BME280;59836;52.132;5.442;2023-07-13T08:43:47;101563.66;;;18.26;87.31
71966;BME280;59836;52.132;5.442;2023-07-13T08:48:52;101575.88;;;18.34;85.23
71966;BME280;59836;52.132;5.442;2023-07-13T08:51:46;101585.13;;;18.38;85.07
71966;BME280;59836;52.132;5.442;2023-07-13T08:56:47;101596.94;;;18.52;83.59
71966;BME280;59836;52.132;5.442;2023-07-13T08:59:21;101604.53;;;18.55;83.10
71966;BME280;59836;52.132;5.442;2023-07-13T09:02:34;101598.56;;;18.53;82.63
71966;BME280;59836;52.132;5.442;2023-07-13T09:05:12;101598.66;;;18.48;82.00
71966;BME280;59836;52.132;5.442;2023-07-13T09:10:43;101609.84;;;18.38;82.08
71966;BME280;59836;52.132;5.442;2023-07-13T09:16:17;101606.78;;;18.25;82.89
71966;BME280;59836;52.132;5.442;2023-07-13T09:18:51;101606.78;;;18.25;83.86
71966;BME280;59836;52.132;5.442;2023-07-13T09:21:27;101598.03;;;18.23;84.59
71966;BME280;59836;52.132;5.442;2023-07-13T09:26:51;101605.75;;;18.21;85.81
71966;BME280;59836;52.132;5.442;2023-07-13T09:29:27;101602.19;;;18.21;85.92
71966;BME280;59836;52.132;5.442;2023-07-13T09:32:21;101598.66;;;18.20;86.47
71966;BME280;59836;52.132;5.442;2023-07-13T09:34:58;101605.16;;;18.24;87.30
71966;BME280;59836;52.132;5.442;2023-07-13T09:37:31;101599.47;;;18.35;88.44
71966;BME280;59836;52.132;5.442;2023-07-13T09:39:59;101599.28;;;18.45;88.86
71966;BME280;59836;52.132;5.442;2023-07-13T09:42:32;101593.38;;;18.52;87.18
71966;BME280;59836;52.132;5.442;2023-07-13T09:48:14;101600.69;;;18.56;84.66
71966;BME280;59836;52.132;5.442;2023-07-13T09:50:42;101605.19;;;18.52;83.53
71966;BME280;59836;52.132;5.442;2023-07-13T09:53:14;101617.38;;;18.46;83.11
71966;BME280;59836;52.132;5.442;2023-07-13T09:55:52;101638.44;;;18.37;83.51
71966;BME280;59836;52.132;5.442;2023-07-13T10:00:57;101655.91;;;18.27;87.83
71966;BME280;59836;52.132;5.442;2023-07-13T10:03:29;101647.63;;;18.13;88.59
71966;BME280;59836;52.132;5.442;2023-07-13T10:09:18;101651.81;;;17.91;89.55
71966;BME280;59836;52.132;5.442;2023-07-13T10:11:45;101642.03;;;17.85;89.42
71966;BME280;59836;52.132;5.442;2023-07-13T10:14:32;101639.81;;;17.87;90.31
71966;BME280;59836;52.132;5.442;2023-07-13T10:17:00;101645.72;;;17.94;91.66
71966;BME280;59836;52.132;5.442;2023-07-13T10:19:35;101637.44;;;17.99;91.89
71966;BME280;59836;52.132;5.442;2023-07-13T10:25:47;101651.94;;;18.19;93.23
71966;BME280;59836;52.132;5.442;2023-07-13T10:28:25;101651.31;;;18.22;91.87
71966;BME280;59836;52.132;5.442;2023-07-13T10:30:55;101652.13;;;18.23;91.97
71966;BME280;59836;52.132;5.442;2023-07-13T10:33:23;101646.53;;;18.28;93.13
71966;BME280;59836;52.132;5.442;2023-07-13T10:38:43;101647.69;;;18.41;94.07
71966;BME280;59836;52.132;5.442;2023-07-13T10:41:15;101646.78;;;18.46;93.52
71966;BME280;59836;52.132;5.442;2023-07-13T10:43:51;101649.22;;;18.47;94.29
71966;BME280;59836;52.132;5.442;2023-07-13T10:46:28;101651.97;;;18.47;92.58
71966;BME280;59836;52.132;5.442;2023-07-13T10:49:20;101655.84;;;18.46;92.23
71966;BME280;59836;52.132;5.442;2023-07-13T10:51:49;101657.75;;;18.46;93.55
71966;BME280;59836;52.132;5.442;2023-07-13T10:54:27;101661.00;;;18.48;94.08
71966;BME280;59836;52.132;5.442;2023-07-13T10:59:39;101664.59;;;18.62;93.44
71966;BME280;59836;52.132;5.442;2023-07-13T11:02:26;101655.41;;;18.67;92.97
71966;BME280;59836;52.132;5.442;2023-07-13T11:04:58;101658.28;;;18.76;92.33
71966;BME280;59836;52.132;5.442;2023-07-13T11:08:02;101657.25;;;18.85;91.38
71966;BME280;59836;52.132;5.442;2023-07-13T11:11:00;101667.25;;;18.95;91.00
71966;BME280;59836;52.132;5.442;2023-07-13T11:16:35;101671.72;;;19.05;87.81
71966;BME280;59836;52.132;5.442;2023-07-13T11:21:30;101665.50;;;19.13;86.80
71966;BME280;59836;52.132;5.442;2023-07-13T11:24:04;101678.03;;;19.20;85.96
71966;BME280;59836;52.132;5.442;2023-07-13T11:26:43;101664.38;;;19.14;86.29
71966;BME280;59836;52.132;5.442;2023-07-13T11:29:33;101666.13;;;19.10;84.95
71966;BME280;59836;52.132;5.442;2023-07-13T11:32:30;101665.63;;;19.08;85.68
71966;BME280;59836;52.132;5.442;2023-07-13T11:34:57;101661.75;;;19.09;87.39
71966;BME280;59836;52.132;5.442;2023-07-13T11:37:32;101656.88;;;19.06;87.32
71966;BME280;59836;52.132;5.442;2023-07-13T11:43:22;101674.06;;;18.98;87.12
71966;BME280;59836;52.132;5.442;2023-07-13T11:45:50;101684.53;;;18.96;86.67
71966;BME280;59836;52.132;5.442;2023-07-13T11:48:22;101700.00;;;18.92;88.76
71966;BME280;59836;52.132;5.442;2023-07-13T11:50:51;101692.59;;;18.92;89.48
71966;BME280;59836;52.132;5.442;2023-07-13T11:53:19;101699.00;;;18.87;88.21
71966;BME280;59836;52.132;5.442;2023-07-13T11:59:05;101693.69;;;18.77;88.70
71966;BME280;59836;52.132;5.442;2023-07-13T12:01:32;101692.16;;;18.71;88.53
71966;BME280;59836;52.132;5.442;2023-07-13T12:04:02;101699.69;;;18.65;88.63
71966;BME280;59836;52.132;5.442;2023-07-13T12:06:35;101703.06;;;18.62;89.61
71966;BME280;59836;52.132;5.442;2023-07-13T12:09:14;101694.31;;;18.60;89.74
71966;BME280;59836;52.132;5.442;2023-07-13T12:11:44;101693.47;;;18.59;89.47
71966;BME280;59836;52.132;5.442;2023-07-13T12:14:28;101695.41;;;18.59;90.27
71966;BME280;59836;52.132;5.442;2023-07-13T12:16:55;101698.97;;;18.59;90.72
71966;BME280;59836;52.132;5.442;2023-07-13T12:19:35;101695.94;;;18.61;90.91
71966;BME280;59836;52.132;5.442;2023-07-13T12:22:01;101691.25;;;18.62;91.74
71966;BME280;59836;52.132;5.442;2023-07-13T12:24:28;101699.19;;;18.63;91.95
71966;BME280;59836;52.132;5.442;2023-07-13T12:27:03;101702.44;;;18.65;92.09
71966;BME280;59836;52.132;5.442;2023-07-13T12:29:32;101692.88;;;18.63;90.50
71966;BME280;59836;52.132;5.442;2023-07-13T12:32:17;101696.44;;;18.63;91.27
71966;BME280;59836;52.132;5.442;2023-07-13T12:35:14;101696.72;;;18.62;92.10
71966;BME280;59836;52.132;5.442;2023-07-13T12:37:45;101700.00;;;18.64;92.34
71966;BME280;59836;52.132;5.442;2023-07-13T12:40:19;101690.03;;;18.68;92.02
71966;BME280;59836;52.132;5.442;2023-07-13T12:46:04;101685.16;;;18.93;91.56
71966;BME280;59836;52.132;5.442;2023-07-13T12:48:43;101686.59;;;19.04;91.19
71966;BME280;59836;52.132;5.442;2023-07-13T12:51:28;101683.13;;;19.12;89.33
71966;BME280;59836;52.132;5.442;2023-07-13T12:54:07;101688.00;;;19.15;89.02
71966;BME280;59836;52.132;5.442;2023-07-13T12:56:39;101688.00;;;19.15;88.80
71966;BME280;59836;52.132;5.442;2023-07-13T12:59:17;101693.53;;;19.15;87.00
71966;BME280;59836;52.132;5.442;2023-07-13T13:01:46;101690.66;;;19.21;87.30
71966;BME280;59836;52.132;5.442;2023-07-13T13:04:21;101687.19;;;19.29;87.16
71966;BME280;59836;52.132;5.442;2023-07-13T13:06:49;101687.59;;;19.36;86.04
71966;BME280;59836;52.132;5.442;2023-07-13T13:09:27;101686.97;;;19.39;85.67
71966;BME280;59836;52.132;5.442;2023-07-13T13:11:53;101689.22;;;19.37;83.21
71966;BME280;59836;52.132;5.442;2023-07-13T13:14:20;101695.31;;;19.34;86.67
71966;BME280;59836;52.132;5.442;2023-07-13T13:16:48;101689.09;;;19.28;84.72
71966;BME280;59836;52.132;5.442;2023-07-13T13:19:41;101698.19;;;19.29;86.35
71966;BME280;59836;52.132;5.442;2023-07-13T13:22:08;101684.09;;;19.30;85.17
71966;BME280;59836;52.132;5.442;2023-07-13T13:24:34;101693.59;;;19.38;85.69
71966;BME280;59836;52.132;5.442;2023-07-13T13:27:25;101685.84;;;19.40;84.26
71966;BME280;59836;52.132;5.442;2023-07-13T13:29:52;101687.75;;;19.40;84.74
71966;BME280;59836;52.132;5.442;2023-07-13T13:32:32;101693.78;;;19.42;83.98
71966;BME280;59836;52.132;5.442;2023-07-13T13:35:17;101695.72;;;19.41;83.18
71966;BME280;59836;52.132;5.442;2023-07-13T13:37:50;101691.34;;;19.40;83.71
71966;BME280;59836;52.132;5.442;2023-07-13T13:40:20;101696.34;;;19.38;81.47
71966;BME280;59836;52.132;5.442;2023-07-13T13:42:47;101692.88;;;19.32;82.55
71966;BME280;59836;52.132;5.442;2023-07-13T13:45:27;101702.69;;;19.25;82.13
71966;BME280;59836;52.132;5.442;2023-07-13T13:47:54;101697.56;;;19.18;82.34
71966;BME280;59836;52.132;5.442;2023-07-13T13:50:21;101695.75;;;19.13;82.62
71966;BME280;59836;52.132;5.442;2023-07-13T13:52:51;101700.66;;;19.16;82.40
71966;BME280;59836;52.132;5.442;2023-07-13T13:55:19;101695.31;;;19.20;81.63
71966;BME280;59836;52.132;5.442;2023-07-13T13:57:48;101696.66;;;19.23;84.51
71966;BME280;59836;52.132;5.442;2023-07-13T14:00:16;101692.56;;;19.20;80.82
71966;BME280;59836;52.132;5.442;2023-07-13T14:02:46;101697.78;;;19.22;82.82
71966;BME280;59836;52.132;5.442;2023-07-13T14:05:16;101703.91;;;19.18;83.09
71966;BME280;59836;52.132;5.442;2023-07-13T14:07:45;101689.22;;;19.23;81.03
71966;BME280;59836;52.132;5.442;2023-07-13T14:10:15;101699.41;;;19.23;79.97
71966;BME280;59836;52.132;5.442;2023-07-13T14:12:44;101697.97;;;19.25;80.19
71966;BME280;59836;52.132;5.442;2023-07-13T14:15:22;101698.47;;;19.27;79.70
71966;BME280;59836;52.132;5.442;2023-07-13T14:17:49;101697.06;;;19.30;81.79
71966;BME280;59836;52.132;5.442;2023-07-13T14:20:22;101700.72;;;19.25;79.08
71966;BME280;59836;52.132;5.442;2023-07-13T14:22:57;101694.94;;;19.27;82.61
71966;BME280;59836;52.132;5.442;2023-07-13T14:25:24;101705.41;;;19.25;83.35
71966;BME280;59836;52.132;5.442;2023-07-13T14:27:54;101699.41;;;19.23;80.98
71966;BME280;59836;52.132;5.442;2023-07-13T14:30:38;101704.81;;;19.28;81.28
71966;BME280;59836;52.132;5.442;2023-07-13T14:33:08;101702.25;;;19.31;81.17
71966;BME280;59836;52.132;5.442;2023-07-13T14:35:49;101697.75;;;19.36;79.66
71966;BME280;59836;52.132;5.442;2023-07-13T14:38:19;101701.00;;;19.38;79.98
71966;BME280;59836;52.132;5.442;2023-07-13T14:40:57;101712.22;;;19.41;78.30
71966;BME280;59836;52.132;5.442;2023-07-13T14:43:24;101709.47;;;19.41;77.69
71966;BME280;59836;52.132;5.442;2023-07-13T14:46:30;101707.22;;;19.43;78.00
71966;BME280;59836;52.132;5.442;2023-07-13T14:49:02;101708.34;;;19.42;78.19
71966;BME280;59836;52.132;5.442;2023-07-13T14:51:46;101714.88;;;19.46;78.63
71966;BME280;59836;52.132;5.442;2023-07-13T14:54:13;101715.03;;;19.50;79.02
71966;BME280;59836;52.132;5.442;2023-07-13T14:57:15;101717.50;;;19.52;78.89
71966;BME280;59836;52.132;5.442;2023-07-13T14:59:42;101713.63;;;19.53;77.60
71966;BME280;59836;52.132;5.442;2023-07-13T15:02:33;101718.81;;;19.54;80.56
71966;BME280;59836;52.132;5.442;2023-07-13T15:05:01;101714.25;;;19.50;77.92
71966;BME280;59836;52.132;5.442;2023-07-13T15:07:28;101712.00;;;19.52;77.79
71966;BME280;59836;52.132;5.442;2023-07-13T15:09:54;101708.13;;;19.53;78.49
71966;BME280;59836;52.132;5.442;2023-07-13T15:12:21;101714.63;;;19.57;77.23
71966;BME280;59836;52.132;5.442;2023-07-13T15:14:47;101708.19;;;19.61;76.44
71966;BME280;59836;52.132;5.442;2023-07-13T15:19:53;101717.34;;;19.71;78.31
71966;BME280;59836;52.132;5.442;2023-07-13T15:22:20;101715.38;;;19.71;76.74
71966;BME280;59836;52.132;5.442;2023-07-13T15:24:49;101715.72;;;19.70;76.58
71966;BME280;59836;52.132;5.442;2023-07-13T15:27:15;101713.75;;;19.70;76.15
71966;BME280;59836;52.132;5.442;2023-07-13T15:29:42;101728.03;;;19.72;77.28
71966;BME280;59836;52.132;5.442;2023-07-13T15:32:13;101722.50;;;19.72;76.81
71966;BME280;59836;52.132;5.442;2023-07-13T15:34:40;101724.75;;;19.70;75.79
71966;BME280;59836;52.132;5.442;2023-07-13T15:37:15;101719.88;;;19.67;76.06
71966;BME280;59836;52.132;5.442;2023-07-13T15:39:50;101720.50;;;19.64;75.20
71966;BME280;59836;52.132;5.442;2023-07-13T15:42:29;101724.38;;;19.63;77.15
71966;BME280;59836;52.132;5.442;2023-07-13T15:44:55;101727.28;;;19.58;76.86
71966;BME280;59836;52.132;5.442;2023-07-13T15:47:22;101726.44;;;19.57;78.18
71966;BME280;59836;52.132;5.442;2023-07-13T15:50:03;101718.81;;;19.54;78.64
71966;BME280;59836;52.132;5.442;2023-07-13T15:52:32;101725.25;;;19.50;77.97
71966;BME280;59836;52.132;5.442;2023-07-13T15:55:00;101721.06;;;19.52;76.13
71966;BME280;59836;52.132;5.442;2023-07-13T15:57:27;101713.31;;;19.54;76.04
71966;BME280;59836;52.132;5.442;2023-07-13T15:59:54;101714.63;;;19.57;75.25
71966;BME280;59836;52.132;5.442;2023-07-13T16:02:20;101719.53;;;19.60;74.51
71966;BME280;59836;52.132;5.442;2023-07-13T16:05:00;101718.06;;;19.62;75.36
71966;BME280;59836;52.132;5.442;2023-07-13T16:07:27;101717.75;;;19.64;73.44
71966;BME280;59836;52.132;5.442;2023-07-13T16:09:54;101720.50;;;19.64;73.68
71966;BME280;59836;52.132;5.442;2023-07-13T16:12:30;101715.81;;;19.65;74.82
71966;BME280;59836;52.132;5.442;2023-07-13T16:14:57;101723.75;;;19.66;74.74
71966;BME280;59836;52.132;5.442;2023-07-13T16:17:24;101718.25;;;19.66;74.91
71966;BME280;59836;52.132;5.442;2023-07-13T16:19:51;101717.13;;;19.67;73.81
71966;BME280;59836;52.132;5.442;2023-07-13T16:22:20;101718.25;;;19.66;72.87
71966;BME280;59836;52.132;5.442;2023-07-13T16:25:25;101723.75;;;19.66;73.63
71966;BME280;59836;52.132;5.442;2023-07-13T16:27:53;101719.88;;;19.67;72.89
71966;BME280;59836;52.132;5.442;2023-07-13T16:30:28;101720.88;;;19.71;72.99
71966;BME280;59836;52.132;5.442;2023-07-13T16:32:59;101733.53;;;19.72;74.75
71966;BME280;59836;52.132;5.442;2023-07-13T16:35:36;101723.13;;;19.69;73.54
71966;BME280;59836;52.132;5.442;2023-07-13T16:38:13;101722.97;;;19.66;74.40
71966;BME280;59836;52.132;5.442;2023-07-13T16:40:40;101729.25;;;19.66;73.12
71966;BME280;59836;52.132;5.442;2023-07-13T16:43:15;101719.88;;;19.67;76.39
71966;BME280;59836;52.132;5.442;2023-07-13T16:45:48;101720.50;;;19.64;73.98
71966;BME280;59836;52.132;5.442;2023-07-13T16:48:28;101721.63;;;19.63;76.17
71966;BME280;59836;52.132;5.442;2023-07-13T16:51:01;101714.03;;;19.60;74.54
71966;BME280;59836;52.132;5.442;2023-07-13T16:53:31;101715.44;;;19.57;75.62
71966;BME280;59836;52.132;5.442;2023-07-13T16:56:00;101721.78;;;19.58;71.70
71966;BME280;59836;52.132;5.442;2023-07-13T16:58:29;101730.03;;;19.58;74.16
71966;BME280;59836;52.132;5.442;2023-07-13T17:01:00;101721.56;;;19.54;73.84
71966;BME280;59836;52.132;5.442;2023-07-13T17:03:50;101727.38;;;19.53;75.94
71966;BME280;59836;52.132;5.442;2023-07-13T17:06:31;101723.63;;;19.49;76.08
71966;BME280;59836;52.132;5.442;2023-07-13T17:08:58;101727.50;;;19.47;76.92
71966;BME280;59836;52.132;5.442;2023-07-13T17:11:25;101722.09;;;19.42;76.29
71966;BME280;59836;52.132;5.442;2023-07-13T17:13:53;101721.59;;;19.40;73.85
71966;BME280;59836;52.132;5.442;2023-07-13T17:16:20;101723.22;;;19.41;74.04
71966;BME280;59836;52.132;5.442;2023-07-13T17:18:57;101728.72;;;19.41;73.43
71966;BME280;59836;52.132;5.442;2023-07-13T17:21:33;101723.22;;;19.41;74.04
71966;BME280;59836;52.132;5.442;2023-07-13T17:24:16;101722.41;;;19.41;73.90
71966;BME280;59836;52.132;5.442;2023-07-13T17:27:09;101725.47;;;19.39;75.10
71966;BME280;59836;52.132;5.442;2023-07-13T17:29:35;101720.59;;;19.36;76.22
71966;BME280;59836;52.132;5.442;2023-07-13T17:32:20;101719.25;;;19.33;77.10
71966;BME280;59836;52.132;5.442;2023-07-13T17:34:49;101721.00;;;19.29;74.11
71966;BME280;59836;52.132;5.442;2023-07-13T17:37:31;101717.94;;;19.31;75.50
71966;BME280;59836;52.132;5.442;2023-07-13T17:40:13;101722.94;;;19.29;76.27
71966;BME280;59836;52.132;5.442;2023-07-13T17:42:45;101720.19;;;19.29;77.65
71966;BME280;59836;52.132;5.442;2023-07-13T17:45:14;101718.56;;;19.28;77.91
71966;BME280;59836;52.132;5.442;2023-07-13T17:48:01;101722.72;;;19.25;76.89
71966;BME280;59836;52.132;5.442;2023-07-13T17:50:33;101723.03;;;19.24;76.46
71966;BME280;59836;52.132;5.442;2023-07-13T17:53:19;101725.59;;;19.20;77.09
71966;BME280;59836;52.132;5.442;2023-07-13T17:55:47;101728.16;;;19.16;76.32
71966;BME280;59836;52.132;5.442;2023-07-13T17:58:16;101732.81;;;19.16;76.59
71966;BME280;59836;52.132;5.442;2023-07-13T18:00:45;101729.25;;;19.15;78.71
71966;BME280;59836;52.132;5.442;2023-07-13T18:03:21;101736.06;;;19.18;78.90
71966;BME280;59836;52.132;5.442;2023-07-13T18:05:50;101726.50;;;19.15;76.75
71966;BME280;59836;52.132;5.442;2023-07-13T18:11:35;101737.00;;;19.13;78.64
71966;BME280;59836;52.132;5.442;2023-07-13T18:14:22;101738.31;;;19.16;79.10
71966;BME280;59836;52.132;5.442;2023-07-13T18:16:55;101745.25;;;19.13;78.60
71966;BME280;59836;52.132;5.442;2023-07-13T18:19:38;101753.00;;;19.11;78.72
71966;BME280;59836;52.132;5.442;2023-07-13T18:22:24;101752.47;;;19.09;77.60
71966;BME280;59836;52.132;5.442;2023-07-13T18:25:23;101762.38;;;19.10;77.86
71966;BME280;59836;52.132;5.442;2023-07-13T18:27:51;101750.84;;;19.08;77.99
71966;BME280;59836;52.132;5.442;2023-07-13T18:30:20;101756.97;;;19.05;78.87
71966;BME280;59836;52.132;5.442;2023-07-13T18:32:52;101756.44;;;19.03;79.35
71966;BME280;59836;52.132;5.442;2023-07-13T18:35:27;101747.69;;;19.01;79.47
71966;BME280;59836;52.132;5.442;2023-07-13T18:37:56;101753.50;;;18.99;79.85
71966;BME280;59836;52.132;5.442;2023-07-13T18:40:45;101754.38;;;18.95;79.63
71966;BME280;59836;52.132;5.442;2023-07-13T18:43:12;101762.13;;;18.93;78.86
71966;BME280;59836;52.132;5.442;2023-07-13T18:45:53;101760.81;;;18.90;78.95
71966;BME280;59836;52.132;5.442;2023-07-13T18:48:25;101753.16;;;18.87;79.39
71966;BME280;59836;52.132;5.442;2023-07-13T18:50:58;101763.31;;;18.86;79.28
71966;BME280;59836;52.132;5.442;2023-07-13T18:53:25;101765.38;;;18.81;78.81
71966;BME280;59836;52.132;5.442;2023-07-13T18:55:53;101769.53;;;18.78;79.84
71966;BME280;59836;52.132;5.442;2023-07-13T18:58:37;101767.38;;;18.75;78.94
71966;BME280;59836;52.132;5.442;2023-07-13T19:01:30;101775.13;;;18.73;79.38
71966;BME280;59836;52.132;5.442;2023-07-13T19:03:57;101768.59;;;18.69;79.86
71966;BME280;59836;52.132;5.442;2023-07-13T19:06:37;101763.50;;;18.62;79.46
71966;BME280;59836;52.132;5.442;2023-07-13T19:09:09;101764.38;;;18.57;80.33
71966;BME280;59836;52.132;5.442;2023-07-13T19:15:17;101776.69;;;18.46;80.43
71966;BME280;59836;52.132;5.442;2023-07-13T19:17:44;101781.16;;;18.42;81.12
71966;BME280;59836;52.132;5.442;2023-07-13T19:20:13;101782.34;;;18.36;81.32
71966;BME280;59836;52.132;5.442;2023-07-13T19:22:41;101782.44;;;18.31;81.18
71966;BME280;59836;52.132;5.442;2023-07-13T19:25:13;101786.38;;;18.24;81.70
71966;BME280;59836;52.132;5.442;2023-07-13T19:27:41;101785.94;;;18.17;81.81
71966;BME280;59836;52.132;5.442;2023-07-13T19:30:10;101787.13;;;18.11;81.93
71966;BME280;59836;52.132;5.442;2023-07-13T19:32:46;101780.59;;;18.07;82.17
71966;BME280;59836;52.132;5.442;2023-07-13T19:35:13;101773.47;;;18.06;81.49
71966;BME280;59836;52.132;5.442;2023-07-13T19:37:49;101782.91;;;17.99;81.96
71966;BME280;59836;52.132;5.442;2023-07-13T19:40:54;101784.91;;;17.94;82.01
71966;BME280;59836;52.132;5.442;2023-07-13T19:43:31;101781.38;;;17.88;81.06
71966;BME280;59836;52.132;5.442;2023-07-13T19:45:58;101787.78;;;17.83;81.67